sensor_id;sensor_type;location;lat;lon;timestamp;P1;durP1;ratioP1;P2;durP2;ratioP2
62457;SDS011;48509;52.122;5.250;2023-04-03T00:01:33;5.11;;;2.4;;
62457;SDS011;48509;52.122;5.250;2023-04-03T00:04:47;6.7;;;2.8;;
62457;SDS011;48509;52.122;5.250;2023-04-03T00:06:24;4.2;;;2.5;;
62457;SDS011;48509;52.122;5.250;2023-04-03T00:08:01;6.3;;;2.7;;
62457;SDS011;48509;52.122;5.250;2023-04-03T00:12:51;6.1;;;2.8;;
62457;SDS011;48509;52.122;5.250;2023-04-03T00:14:28;4.61;;;2.7;;
62457;SDS011;48509;52.122;5.250;2023-04-03T00:16:05;6.4;;;3.0;;
62457;SDS011;48509;52.122;5.250;2023-04-03T00:19:19;4.8;;;3.0;;
62457;SDS011;48509;52.122;5.250;2023-04-03T00:20:56;5.11;;;2.5;;
62457;SDS011;48509;52.122;5.250;2023-04-03T00:22:33;7.6;;;2.9;;
62457;SDS011;48509;52.122;5.250;2023-04-03T00:25:46;7.6;;;2.6;;
62457;SDS011;48509;52.122;5.250;2023-04-03T00:28:59;4.0;;;2.9;;
62457;SDS011;48509;52.122;5.250;2023-04-03T00:30:35;6.5;;;3.1;;
62457;SDS011;48509;52.122;5.250;2023-04-03T00:33:49;5.0;;;3.1;;
62457;SDS011;48509;52.122;5.250;2023-04-03T00:35:26;5.8;;;3.1;;
62457;SDS011;48509;52.122;5.250;2023-04-03T00:37:04;5.5;;;3.2;;
62457;SDS011;48509;52.122;5.250;2023-04-03T00:40:17;3.0;;;2.7;;
62457;SDS011;48509;52.122;5.250;2023-04-03T00:41:54;4.3;;;3.0;;
62457;SDS011;48509;52.122;5.250;2023-04-03T00:43:30;4.91;;;3.0;;
62457;SDS011;48509;52.122;5.250;2023-04-03T00:47:08;4.91;;;3.3;;
62457;SDS011;48509;52.122;5.250;2023-04-03T00:48:47;4.2;;;3.4;;
62457;SDS011;48509;52.122;5.250;2023-04-03T00:50:24;4.8;;;3.0;;
62457;SDS011;48509;52.122;5.250;2023-04-03T00:52:02;5.2;;;3.1;;
62457;SDS011;48509;52.122;5.250;2023-04-03T00:53:44;6.6;;;3.1;;
62457;SDS011;48509;52.122;5.250;2023-04-03T00:57:01;5.9;;;3.1;;
62457;SDS011;48509;52.122;5.250;2023-04-03T00:58:42;6.7;;;3.1;;
62457;SDS011;48509;52.122;5.250;2023-04-03T01:00:24;6.7;;;3.1;;
62457;SDS011;48509;52.122;5.250;2023-04-03T01:02:02;5.3;;;3.0;;
62457;SDS011;48509;52.122;5.250;2023-04-03T01:06:52;6.0;;;2.8;;
62457;SDS011;48509;52.122;5.250;2023-04-03T01:08:31;5.3;;;3.1;;
62457;SDS011;48509;52.122;5.250;2023-04-03T01:11:49;5.11;;;2.9;;
62457;SDS011;48509;52.122;5.250;2023-04-03T01:13:26;6.0;;;3.1;;
62457;SDS011;48509;52.122;5.250;2023-04-03T01:15:06;5.9;;;3.1;;
62457;SDS011;48509;52.122;5.250;2023-04-03T01:16:51;5.4;;;3.2;;
62457;SDS011;48509;52.122;5.250;2023-04-03T01:20:15;5.3;;;3.1;;
62457;SDS011;48509;52.122;5.250;2023-04-03T01:23:56;5.2;;;3.0;;
62457;SDS011;48509;52.122;5.250;2023-04-03T01:25:45;4.7;;;2.9;;
62457;SDS011;48509;52.122;5.250;2023-04-03T01:27:24;6.4;;;3.2;;
62457;SDS011;48509;52.122;5.250;2023-04-03T01:32:22;4.8;;;2.7;;
62457;SDS011;48509;52.122;5.250;2023-04-03T01:33:59;4.8;;;2.8;;
62457;SDS011;48509;52.122;5.250;2023-04-03T01:35:37;5.7;;;3.0;;
62457;SDS011;48509;52.122;5.250;2023-04-03T01:38:50;5.8;;;2.8;;
62457;SDS011;48509;52.122;5.250;2023-04-03T01:40:28;4.91;;;2.8;;
62457;SDS011;48509;52.122;5.250;2023-04-03T01:42:04;3.9;;;2.6;;
62457;SDS011;48509;52.122;5.250;2023-04-03T01:46:54;4.3;;;2.8;;
62457;SDS011;48509;52.122;5.250;2023-04-03T01:48:32;5.7;;;2.8;;
62457;SDS011;48509;52.122;5.250;2023-04-03T01:53:21;5.3;;;2.7;;
62457;SDS011;48509;52.122;5.250;2023-04-03T01:54:57;5.9;;;2.9;;
62457;SDS011;48509;52.122;5.250;2023-04-03T01:56:34;4.3;;;2.6;;
62457;SDS011;48509;52.122;5.250;2023-04-03T01:59:46;5.7;;;2.9;;
62457;SDS011;48509;52.122;5.250;2023-04-03T02:01:23;4.91;;;2.7;;
62457;SDS011;48509;52.122;5.250;2023-04-03T02:03:01;4.1;;;2.7;;
62457;SDS011;48509;52.122;5.250;2023-04-03T02:04:38;4.2;;;2.4;;
62457;SDS011;48509;52.122;5.250;2023-04-03T02:11:04;5.0;;;2.7;;
62457;SDS011;48509;52.122;5.250;2023-04-03T02:14:16;4.41;;;2.7;;
62457;SDS011;48509;52.122;5.250;2023-04-03T02:15:52;4.91;;;3.0;;
62457;SDS011;48509;52.122;5.250;2023-04-03T02:17:28;6.1;;;2.8;;
62457;SDS011;48509;52.122;5.250;2023-04-03T02:20:41;5.5;;;2.7;;
62457;SDS011;48509;52.122;5.250;2023-04-03T02:22:17;6.5;;;3.3;;
62457;SDS011;48509;52.122;5.250;2023-04-03T02:23:53;4.0;;;2.9;;
62457;SDS011;48509;52.122;5.250;2023-04-03T02:27:08;7.1;;;2.7;;
62457;SDS011;48509;52.122;5.250;2023-04-03T02:28:44;3.9;;;2.7;;
62457;SDS011;48509;52.122;5.250;2023-04-03T02:30:20;5.6;;;2.9;;
62457;SDS011;48509;52.122;5.250;2023-04-03T02:31:56;5.7;;;2.8;;
62457;SDS011;48509;52.122;5.250;2023-04-03T02:35:10;5.4;;;2.6;;
62457;SDS011;48509;52.122;5.250;2023-04-03T02:36:47;5.6;;;2.9;;
62457;SDS011;48509;52.122;5.250;2023-04-03T02:38:23;5.6;;;2.9;;
62457;SDS011;48509;52.122;5.250;2023-04-03T02:41:36;4.0;;;2.7;;
62457;SDS011;48509;52.122;5.250;2023-04-03T02:43:13;6.5;;;2.8;;
62457;SDS011;48509;52.122;5.250;2023-04-03T02:44:49;7.3;;;3.3;;
62457;SDS011;48509;52.122;5.250;2023-04-03T02:48:01;4.91;;;2.9;;
62457;SDS011;48509;52.122;5.250;2023-04-03T02:49:37;6.6;;;3.3;;
62457;SDS011;48509;52.122;5.250;2023-04-03T02:52:50;7.1;;;3.2;;
62457;SDS011;48509;52.122;5.250;2023-04-03T02:57:38;6.4;;;3.0;;
62457;SDS011;48509;52.122;5.250;2023-04-03T02:59:14;8.71;;;3.2;;
62457;SDS011;48509;52.122;5.250;2023-04-03T03:02:28;5.6;;;2.9;;
62457;SDS011;48509;52.122;5.250;2023-04-03T03:04:04;6.6;;;3.3;;
62457;SDS011;48509;52.122;5.250;2023-04-03T03:05:40;9.0;;;3.1;;
62457;SDS011;48509;52.122;5.250;2023-04-03T03:08:53;6.1;;;2.9;;
62457;SDS011;48509;52.122;5.250;2023-04-03T03:10:29;8.31;;;3.0;;
62457;SDS011;48509;52.122;5.250;2023-04-03T03:12:05;7.0;;;2.6;;
62457;SDS011;48509;52.122;5.250;2023-04-03T03:16:54;4.7;;;2.7;;
62457;SDS011;48509;52.122;5.250;2023-04-03T03:18:30;6.2;;;3.4;;
62457;SDS011;48509;52.122;5.250;2023-04-03T03:20:07;7.2;;;3.1;;
62457;SDS011;48509;52.122;5.250;2023-04-03T03:23:20;4.61;;;3.1;;
62457;SDS011;48509;52.122;5.250;2023-04-03T03:25:00;6.0;;;3.2;;
62457;SDS011;48509;52.122;5.250;2023-04-03T03:26:36;5.9;;;3.3;;
62457;SDS011;48509;52.122;5.250;2023-04-03T03:29:49;7.5;;;3.1;;
62457;SDS011;48509;52.122;5.250;2023-04-03T03:31:25;5.2;;;3.2;;
62457;SDS011;48509;52.122;5.250;2023-04-03T03:33:02;7.0;;;3.4;;
62457;SDS011;48509;52.122;5.250;2023-04-03T03:34:39;7.3;;;3.1;;
62457;SDS011;48509;52.122;5.250;2023-04-03T03:37:51;7.2;;;3.3;;
62457;SDS011;48509;52.122;5.250;2023-04-03T03:44:16;7.3;;;3.2;;
62457;SDS011;48509;52.122;5.250;2023-04-03T03:45:53;7.3;;;3.4;;
62457;SDS011;48509;52.122;5.250;2023-04-03T03:47:29;10.9;;;3.5;;
62457;SDS011;48509;52.122;5.250;2023-04-03T03:50:42;5.0;;;3.2;;
62457;SDS011;48509;52.122;5.250;2023-04-03T03:52:18;7.9;;;3.3;;
62457;SDS011;48509;52.122;5.250;2023-04-03T03:53:54;6.7;;;3.2;;
62457;SDS011;48509;52.122;5.250;2023-04-03T03:55:30;8.0;;;3.4;;
62457;SDS011;48509;52.122;5.250;2023-04-03T03:58:44;8.71;;;3.5;;
62457;SDS011;48509;52.122;5.250;2023-04-03T04:00:20;7.3;;;3.4;;
62457;SDS011;48509;52.122;5.250;2023-04-03T04:05:09;7.0;;;3.5;;
62457;SDS011;48509;52.122;5.250;2023-04-03T04:06:45;7.1;;;3.4;;
62457;SDS011;48509;52.122;5.250;2023-04-03T04:11:34;9.1;;;3.5;;
62457;SDS011;48509;52.122;5.250;2023-04-03T04:13:10;8.31;;;3.6;;
62457;SDS011;48509;52.122;5.250;2023-04-03T04:14:46;9.71;;;3.5;;
62457;SDS011;48509;52.122;5.250;2023-04-03T04:17:58;8.9;;;3.8;;
62457;SDS011;48509;52.122;5.250;2023-04-03T04:19:35;9.31;;;4.0;;
62457;SDS011;48509;52.122;5.250;2023-04-03T04:21:11;6.0;;;3.4;;
62457;SDS011;48509;52.122;5.250;2023-04-03T04:22:47;8.5;;;3.8;;
62457;SDS011;48509;52.122;5.250;2023-04-03T04:25:59;8.5;;;3.8;;
62457;SDS011;48509;52.122;5.250;2023-04-03T04:27:36;6.2;;;3.7;;
62457;SDS011;48509;52.122;5.250;2023-04-03T04:29:13;7.2;;;3.9;;
62457;SDS011;48509;52.122;5.250;2023-04-03T04:32:25;6.1;;;3.6;;
62457;SDS011;48509;52.122;5.250;2023-04-03T04:34:02;7.7;;;3.8;;
62457;SDS011;48509;52.122;5.250;2023-04-03T04:35:38;9.1;;;4.1;;
62457;SDS011;48509;52.122;5.250;2023-04-03T04:38:50;8.31;;;4.3;;
62457;SDS011;48509;52.122;5.250;2023-04-03T04:42:03;11.8;;;3.8;;
62457;SDS011;48509;52.122;5.250;2023-04-03T04:43:40;7.0;;;3.7;;
62457;SDS011;48509;52.122;5.250;2023-04-03T04:46:52;10.8;;;4.2;;
62457;SDS011;48509;52.122;5.250;2023-04-03T04:48:28;7.7;;;3.9;;
62457;SDS011;48509;52.122;5.250;2023-04-03T04:50:05;8.31;;;4.3;;
62457;SDS011;48509;52.122;5.250;2023-04-03T04:53:18;9.4;;;4.5;;
62457;SDS011;48509;52.122;5.250;2023-04-03T04:54:54;6.7;;;3.9;;
62457;SDS011;48509;52.122;5.250;2023-04-03T04:56:30;7.0;;;3.7;;
62457;SDS011;48509;52.122;5.250;2023-04-03T04:59:43;8.2;;;4.2;;
62457;SDS011;48509;52.122;5.250;2023-04-03T05:01:19;10.5;;;4.41;;
62457;SDS011;48509;52.122;5.250;2023-04-03T05:02:55;6.4;;;4.2;;
62457;SDS011;48509;52.122;5.250;2023-04-03T05:06:08;9.81;;;4.3;;
62457;SDS011;48509;52.122;5.250;2023-04-03T05:07:44;10.0;;;4.3;;
62457;SDS011;48509;52.122;5.250;2023-04-03T05:09:20;8.1;;;4.41;;
62457;SDS011;48509;52.122;5.250;2023-04-03T05:10:56;7.4;;;4.5;;
62457;SDS011;48509;52.122;5.250;2023-04-03T05:14:09;9.4;;;4.3;;
62457;SDS011;48509;52.122;5.250;2023-04-03T05:15:45;9.71;;;4.41;;
62457;SDS011;48509;52.122;5.250;2023-04-03T05:17:22;9.71;;;4.41;;
62457;SDS011;48509;52.122;5.250;2023-04-03T05:20:34;8.5;;;4.41;;
62457;SDS011;48509;52.122;5.250;2023-04-03T05:22:11;9.4;;;4.61;;
62457;SDS011;48509;52.122;5.250;2023-04-03T05:23:47;9.5;;;4.7;;
62457;SDS011;48509;52.122;5.250;2023-04-03T05:26:59;10.8;;;5.0;;
62457;SDS011;48509;52.122;5.250;2023-04-03T05:28:35;8.2;;;4.3;;
62457;SDS011;48509;52.122;5.250;2023-04-03T05:30:12;9.21;;;4.61;;
62457;SDS011;48509;52.122;5.250;2023-04-03T05:31:49;10.0;;;4.8;;
62457;SDS011;48509;52.122;5.250;2023-04-03T05:35:02;10.4;;;4.8;;
62457;SDS011;48509;52.122;5.250;2023-04-03T05:36:39;10.0;;;4.0;;
62457;SDS011;48509;52.122;5.250;2023-04-03T05:38:15;10.0;;;3.8;;
62457;SDS011;48509;52.122;5.250;2023-04-03T05:41:28;9.31;;;4.41;;
62457;SDS011;48509;52.122;5.250;2023-04-03T05:43:04;9.81;;;5.11;;
62457;SDS011;48509;52.122;5.250;2023-04-03T05:47:55;8.5;;;4.7;;
62457;SDS011;48509;52.122;5.250;2023-04-03T05:49:31;8.5;;;4.7;;
62457;SDS011;48509;52.122;5.250;2023-04-03T05:51:09;9.6;;;4.61;;
62457;SDS011;48509;52.122;5.250;2023-04-03T05:52:50;9.0;;;4.91;;
62457;SDS011;48509;52.122;5.250;2023-04-03T05:57:43;10.5;;;4.8;;
62457;SDS011;48509;52.122;5.250;2023-04-03T06:02:33;7.9;;;4.3;;
62457;SDS011;48509;52.122;5.250;2023-04-03T06:04:09;8.4;;;3.9;;
62457;SDS011;48509;52.122;5.250;2023-04-03T06:07:22;9.1;;;4.3;;
62457;SDS011;48509;52.122;5.250;2023-04-03T06:10:37;7.6;;;3.9;;
62457;SDS011;48509;52.122;5.250;2023-04-03T06:12:13;7.7;;;3.9;;
62457;SDS011;48509;52.122;5.250;2023-04-03T06:13:49;10.9;;;4.2;;
62457;SDS011;48509;52.122;5.250;2023-04-03T06:17:02;6.9;;;3.8;;
62457;SDS011;48509;52.122;5.250;2023-04-03T06:18:39;7.6;;;3.4;;
62457;SDS011;48509;52.122;5.250;2023-04-03T06:25:13;8.4;;;4.0;;
62457;SDS011;48509;52.122;5.250;2023-04-03T06:26:49;8.71;;;4.0;;
62457;SDS011;48509;52.122;5.250;2023-04-03T06:31:38;8.9;;;3.8;;
62457;SDS011;48509;52.122;5.250;2023-04-03T06:33:14;10.21;;;3.7;;
62457;SDS011;48509;52.122;5.250;2023-04-03T06:34:50;9.31;;;3.5;;
62457;SDS011;48509;52.122;5.250;2023-04-03T06:39:38;7.8;;;3.1;;
62457;SDS011;48509;52.122;5.250;2023-04-03T06:41:15;9.4;;;3.5;;
62457;SDS011;48509;52.122;5.250;2023-04-03T06:42:52;11.2;;;3.7;;
62457;SDS011;48509;52.122;5.250;2023-04-03T06:47:40;7.9;;;3.1;;
62457;SDS011;48509;52.122;5.250;2023-04-03T06:49:16;7.9;;;3.1;;
62457;SDS011;48509;52.122;5.250;2023-04-03T06:52:29;8.31;;;3.4;;
62457;SDS011;48509;52.122;5.250;2023-04-03T06:54:05;7.6;;;3.2;;
62457;SDS011;48509;52.122;5.250;2023-04-03T06:55:42;8.4;;;3.5;;
62457;SDS011;48509;52.122;5.250;2023-04-03T06:58:55;8.6;;;3.3;;
62457;SDS011;48509;52.122;5.250;2023-04-03T07:00:31;7.6;;;3.4;;
62457;SDS011;48509;52.122;5.250;2023-04-03T07:02:08;7.8;;;3.1;;
62457;SDS011;48509;52.122;5.250;2023-04-03T07:03:47;11.6;;;4.0;;
62457;SDS011;48509;52.122;5.250;2023-04-03T07:07:01;8.2;;;3.2;;
62457;SDS011;48509;52.122;5.250;2023-04-03T07:08:37;9.4;;;3.1;;
62457;SDS011;48509;52.122;5.250;2023-04-03T07:10:14;9.4;;;3.1;;
62457;SDS011;48509;52.122;5.250;2023-04-03T07:13:26;10.5;;;3.3;;
62457;SDS011;48509;52.122;5.250;2023-04-03T07:15:03;10.0;;;3.2;;
62457;SDS011;48509;52.122;5.250;2023-04-03T07:16:40;9.5;;;3.3;;
62457;SDS011;48509;52.122;5.250;2023-04-03T07:19:52;7.1;;;3.2;;
62457;SDS011;48509;52.122;5.250;2023-04-03T07:21:29;8.2;;;3.6;;
62457;SDS011;48509;52.122;5.250;2023-04-03T07:23:05;8.81;;;3.5;;
62457;SDS011;48509;52.122;5.250;2023-04-03T07:24:41;7.6;;;3.1;;
62457;SDS011;48509;52.122;5.250;2023-04-03T07:29:31;10.0;;;3.2;;
62457;SDS011;48509;52.122;5.250;2023-04-03T07:31:08;7.4;;;2.8;;
62457;SDS011;48509;52.122;5.250;2023-04-03T07:34:23;9.5;;;2.9;;
62457;SDS011;48509;52.122;5.250;2023-04-03T07:35:59;7.8;;;3.1;;
62457;SDS011;48509;52.122;5.250;2023-04-03T07:37:36;8.2;;;3.1;;
62457;SDS011;48509;52.122;5.250;2023-04-03T07:42:26;7.0;;;2.9;;
62457;SDS011;48509;52.122;5.250;2023-04-03T07:44:02;7.8;;;2.7;;
62457;SDS011;48509;52.122;5.250;2023-04-03T07:48:54;8.71;;;2.9;;
62457;SDS011;48509;52.122;5.250;2023-04-03T07:50:30;8.71;;;2.9;;
62457;SDS011;48509;52.122;5.250;2023-04-03T07:52:07;6.6;;;2.7;;
62457;SDS011;48509;52.122;5.250;2023-04-03T07:55:19;6.2;;;2.9;;
62457;SDS011;48509;52.122;5.250;2023-04-03T07:56:55;6.8;;;3.2;;
62457;SDS011;48509;52.122;5.250;2023-04-03T07:58:31;7.5;;;2.7;;
62457;SDS011;48509;52.122;5.250;2023-04-03T08:01:44;7.7;;;2.6;;
62457;SDS011;48509;52.122;5.250;2023-04-03T08:03:20;4.91;;;2.5;;
62457;SDS011;48509;52.122;5.250;2023-04-03T08:04:56;5.9;;;2.6;;
62457;SDS011;48509;52.122;5.250;2023-04-03T08:06:33;7.8;;;2.6;;
62457;SDS011;48509;52.122;5.250;2023-04-03T08:11:23;8.71;;;2.7;;
62457;SDS011;48509;52.122;5.250;2023-04-03T08:12:59;9.4;;;2.5;;
62457;SDS011;48509;52.122;5.250;2023-04-03T08:16:14;5.4;;;2.31;;
62457;SDS011;48509;52.122;5.250;2023-04-03T08:17:54;5.6;;;2.1;;
62457;SDS011;48509;52.122;5.250;2023-04-03T08:19:30;5.6;;;2.21;;
62457;SDS011;48509;52.122;5.250;2023-04-03T08:22:44;4.7;;;2.0;;
62457;SDS011;48509;52.122;5.250;2023-04-03T08:24:20;6.4;;;2.4;;
62457;SDS011;48509;52.122;5.250;2023-04-03T08:25:56;7.4;;;2.31;;
62457;SDS011;48509;52.122;5.250;2023-04-03T08:27:32;4.5;;;2.31;;
62457;SDS011;48509;52.122;5.250;2023-04-03T08:30:45;7.4;;;2.7;;
62457;SDS011;48509;52.122;5.250;2023-04-03T08:32:22;4.61;;;2.21;;
62457;SDS011;48509;52.122;5.250;2023-04-03T08:33:58;5.0;;;2.21;;
62457;SDS011;48509;52.122;5.250;2023-04-03T08:37:14;5.3;;;2.0;;
62457;SDS011;48509;52.122;5.250;2023-04-03T08:38:50;4.41;;;2.1;;
62457;SDS011;48509;52.122;5.250;2023-04-03T08:40:28;4.2;;;2.1;;
62457;SDS011;48509;52.122;5.250;2023-04-03T08:43:55;6.1;;;2.21;;
62457;SDS011;48509;52.122;5.250;2023-04-03T08:45:41;5.7;;;2.21;;
62457;SDS011;48509;52.122;5.250;2023-04-03T08:47:22;5.5;;;2.1;;
62457;SDS011;48509;52.122;5.250;2023-04-03T08:49:04;3.9;;;1.8;;
62457;SDS011;48509;52.122;5.250;2023-04-03T08:50:50;4.3;;;1.9;;
62457;SDS011;48509;52.122;5.250;2023-04-03T08:54:14;6.4;;;2.0;;
62457;SDS011;48509;52.122;5.250;2023-04-03T08:56:00;4.8;;;2.1;;
62457;SDS011;48509;52.122;5.250;2023-04-03T08:57:44;4.8;;;1.9;;
62457;SDS011;48509;52.122;5.250;2023-04-03T08:59:24;5.2;;;2.0;;
62457;SDS011;48509;52.122;5.250;2023-04-03T09:01:05;4.0;;;1.6;;
62457;SDS011;48509;52.122;5.250;2023-04-03T09:04:31;5.8;;;1.7;;
62457;SDS011;48509;52.122;5.250;2023-04-03T09:06:11;5.0;;;1.6;;
62457;SDS011;48509;52.122;5.250;2023-04-03T09:07:52;3.8;;;1.8;;
62457;SDS011;48509;52.122;5.250;2023-04-03T09:09:36;4.61;;;1.9;;
62457;SDS011;48509;52.122;5.250;2023-04-03T09:13:01;3.7;;;1.5;;
62457;SDS011;48509;52.122;5.250;2023-04-03T09:14:46;4.3;;;1.7;;
62457;SDS011;48509;52.122;5.250;2023-04-03T09:16:35;2.31;;;1.11;;
62457;SDS011;48509;52.122;5.250;2023-04-03T09:18:24;3.8;;;1.3;;
62457;SDS011;48509;52.122;5.250;2023-04-03T09:20:11;2.7;;;1.2;;
62457;SDS011;48509;52.122;5.250;2023-04-03T09:21:56;4.61;;;1.2;;
62457;SDS011;48509;52.122;5.250;2023-04-03T09:25:18;2.9;;;1.0;;
62457;SDS011;48509;52.122;5.250;2023-04-03T09:26:58;1.5;;;0.7;;
62457;SDS011;48509;52.122;5.250;2023-04-03T09:28:39;2.21;;;1.11;;
62457;SDS011;48509;52.122;5.250;2023-04-03T09:30:18;1.9;;;0.8;;
62457;SDS011;48509;52.122;5.250;2023-04-03T09:33:36;2.1;;;0.9;;
62457;SDS011;48509;52.122;5.250;2023-04-03T09:35:16;2.4;;;1.0;;
62457;SDS011;48509;52.122;5.250;2023-04-03T09:36:57;2.8;;;0.9;;
62457;SDS011;48509;52.122;5.250;2023-04-03T09:38:34;2.9;;;0.9;;
62457;SDS011;48509;52.122;5.250;2023-04-03T09:42:21;1.3;;;0.8;;
62457;SDS011;48509;52.122;5.250;2023-04-03T09:43:59;2.5;;;0.8;;
62457;SDS011;48509;52.122;5.250;2023-04-03T09:45:35;2.8;;;0.8;;
62457;SDS011;48509;52.122;5.250;2023-04-03T09:47:17;1.9;;;0.6;;
62457;SDS011;48509;52.122;5.250;2023-04-03T09:50:52;1.4;;;0.7;;
62457;SDS011;48509;52.122;5.250;2023-04-03T09:52:33;2.1;;;0.8;;
62457;SDS011;48509;52.122;5.250;2023-04-03T09:54:30;2.4;;;0.8;;
62457;SDS011;48509;52.122;5.250;2023-04-03T09:56:18;1.4;;;0.7;;
62457;SDS011;48509;52.122;5.250;2023-04-03T09:57:59;1.6;;;0.6;;
62457;SDS011;48509;52.122;5.250;2023-04-03T09:59:39;1.6;;;0.6;;
62457;SDS011;48509;52.122;5.250;2023-04-03T10:03:04;2.4;;;0.7;;
62457;SDS011;48509;52.122;5.250;2023-04-03T10:04:41;3.6;;;0.6;;
62457;SDS011;48509;52.122;5.250;2023-04-03T10:06:21;1.8;;;0.7;;
62457;SDS011;48509;52.122;5.250;2023-04-03T10:08:20;2.1;;;0.7;;
62457;SDS011;48509;52.122;5.250;2023-04-03T10:09:59;1.3;;;0.7;;
62457;SDS011;48509;52.122;5.250;2023-04-03T10:13:33;2.31;;;0.8;;
62457;SDS011;48509;52.122;5.250;2023-04-03T10:15:11;1.9;;;0.7;;
62457;SDS011;48509;52.122;5.250;2023-04-03T10:16:51;2.6;;;0.8;;
62457;SDS011;48509;52.122;5.250;2023-04-03T10:18:37;2.5;;;0.7;;
62457;SDS011;48509;52.122;5.250;2023-04-03T10:22:13;2.4;;;0.7;;
62457;SDS011;48509;52.122;5.250;2023-04-03T10:23:57;1.7;;;0.7;;
62457;SDS011;48509;52.122;5.250;2023-04-03T10:25:45;1.4;;;0.7;;
62457;SDS011;48509;52.122;5.250;2023-04-03T10:27:35;1.0;;;0.6;;
62457;SDS011;48509;52.122;5.250;2023-04-03T10:29:22;1.2;;;0.7;;
62457;SDS011;48509;52.122;5.250;2023-04-03T10:31:14;1.0;;;0.6;;
62457;SDS011;48509;52.122;5.250;2023-04-03T10:33:01;2.4;;;0.5;;
62457;SDS011;48509;52.122;5.250;2023-04-03T10:36:38;1.11;;;0.6;;
62457;SDS011;48509;52.122;5.250;2023-04-03T10:38:23;1.7;;;0.7;;
62457;SDS011;48509;52.122;5.250;2023-04-03T10:40:15;1.7;;;0.7;;
62457;SDS011;48509;52.122;5.250;2023-04-03T10:42:05;1.4;;;0.7;;
62457;SDS011;48509;52.122;5.250;2023-04-03T10:43:53;1.7;;;0.7;;
62457;SDS011;48509;52.122;5.250;2023-04-03T10:45:49;2.0;;;0.6;;
62457;SDS011;48509;52.122;5.250;2023-04-03T10:49:24;1.11;;;0.6;;
62457;SDS011;48509;52.122;5.250;2023-04-03T10:51:13;1.4;;;0.7;;
62457;SDS011;48509;52.122;5.250;2023-04-03T10:53:01;1.0;;;0.5;;
62457;SDS011;48509;52.122;5.250;2023-04-03T10:54:45;2.21;;;0.8;;
62457;SDS011;48509;52.122;5.250;2023-04-03T10:56:31;1.3;;;0.5;;
62457;SDS011;48509;52.122;5.250;2023-04-03T10:58:16;1.3;;;0.6;;
62457;SDS011;48509;52.122;5.250;2023-04-03T11:01:41;2.31;;;0.7;;
62457;SDS011;48509;52.122;5.250;2023-04-03T11:03:24;1.5;;;0.7;;
62457;SDS011;48509;52.122;5.250;2023-04-03T11:05:06;1.3;;;0.6;;
62457;SDS011;48509;52.122;5.250;2023-04-03T11:06:56;2.9;;;0.8;;
62457;SDS011;48509;52.122;5.250;2023-04-03T11:08:38;1.8;;;0.6;;
62457;SDS011;48509;52.122;5.250;2023-04-03T11:12:02;1.5;;;0.6;;
62457;SDS011;48509;52.122;5.250;2023-04-03T11:13:48;2.0;;;0.7;;
62457;SDS011;48509;52.122;5.250;2023-04-03T11:15:30;1.5;;;0.9;;
62457;SDS011;48509;52.122;5.250;2023-04-03T11:17:11;1.2;;;0.6;;
62457;SDS011;48509;52.122;5.250;2023-04-03T11:19:01;0.8;;;0.6;;
62457;SDS011;48509;52.122;5.250;2023-04-03T11:22:37;1.7;;;0.8;;
62457;SDS011;48509;52.122;5.250;2023-04-03T11:24:20;0.9;;;0.6;;
62457;SDS011;48509;52.122;5.250;2023-04-03T11:26:01;2.4;;;0.8;;
62457;SDS011;48509;52.122;5.250;2023-04-03T11:27:48;1.6;;;0.7;;
62457;SDS011;48509;52.122;5.250;2023-04-03T11:29:32;2.4;;;0.8;;
62457;SDS011;48509;52.122;5.250;2023-04-03T11:33:13;1.8;;;0.8;;
62457;SDS011;48509;52.122;5.250;2023-04-03T11:35:12;2.7;;;0.8;;
62457;SDS011;48509;52.122;5.250;2023-04-03T11:36:51;1.11;;;0.8;;
62457;SDS011;48509;52.122;5.250;2023-04-03T11:38:31;1.2;;;0.6;;
62457;SDS011;48509;52.122;5.250;2023-04-03T11:40:18;1.8;;;0.9;;
62457;SDS011;48509;52.122;5.250;2023-04-03T11:44:05;2.1;;;1.0;;
62457;SDS011;48509;52.122;5.250;2023-04-03T11:46:09;1.6;;;0.8;;
62457;SDS011;48509;52.122;5.250;2023-04-03T11:47:46;3.3;;;1.0;;
62457;SDS011;48509;52.122;5.250;2023-04-03T11:50:00;2.7;;;0.9;;
62457;SDS011;48509;52.122;5.250;2023-04-03T11:51:39;1.4;;;0.8;;
62457;SDS011;48509;52.122;5.250;2023-04-03T11:53:35;3.6;;;1.11;;
62457;SDS011;48509;52.122;5.250;2023-04-03T11:55:52;3.8;;;1.0;;
62457;SDS011;48509;52.122;5.250;2023-04-03T11:58:12;2.4;;;0.8;;
62457;SDS011;48509;52.122;5.250;2023-04-03T11:59:51;1.4;;;0.8;;
62457;SDS011;48509;52.122;5.250;2023-04-03T12:01:43;5.11;;;1.2;;
62457;SDS011;48509;52.122;5.250;2023-04-03T12:04:22;2.0;;;1.0;;
62457;SDS011;48509;52.122;5.250;2023-04-03T12:06:42;1.9;;;1.0;;
62457;SDS011;48509;52.122;5.250;2023-04-03T12:08:46;1.9;;;0.9;;
62457;SDS011;48509;52.122;5.250;2023-04-03T12:10:26;4.8;;;1.11;;
62457;SDS011;48509;52.122;5.250;2023-04-03T12:12:21;3.7;;;1.0;;
62457;SDS011;48509;52.122;5.250;2023-04-03T12:14:04;2.4;;;0.9;;
62457;SDS011;48509;52.122;5.250;2023-04-03T12:15:51;1.7;;;1.11;;
62457;SDS011;48509;52.122;5.250;2023-04-03T12:19:24;3.0;;;0.9;;
62457;SDS011;48509;52.122;5.250;2023-04-03T12:21:10;3.2;;;1.11;;
62457;SDS011;48509;52.122;5.250;2023-04-03T12:23:06;2.6;;;1.0;;
62457;SDS011;48509;52.122;5.250;2023-04-03T12:24:43;2.8;;;1.0;;
62457;SDS011;48509;52.122;5.250;2023-04-03T12:26:22;3.6;;;1.2;;
62457;SDS011;48509;52.122;5.250;2023-04-03T12:28:04;3.9;;;1.2;;
62457;SDS011;48509;52.122;5.250;2023-04-03T12:33:23;3.4;;;1.0;;
62457;SDS011;48509;52.122;5.250;2023-04-03T12:35:16;3.1;;;1.0;;
62457;SDS011;48509;52.122;5.250;2023-04-03T12:37:01;3.3;;;1.0;;
62457;SDS011;48509;52.122;5.250;2023-04-03T12:38:53;2.31;;;1.11;;
62457;SDS011;48509;52.122;5.250;2023-04-03T12:40:43;3.8;;;1.0;;
62457;SDS011;48509;52.122;5.250;2023-04-03T12:44:31;1.6;;;0.8;;
62457;SDS011;48509;52.122;5.250;2023-04-03T12:46:17;1.9;;;1.0;;
62457;SDS011;48509;52.122;5.250;2023-04-03T12:47:55;6.3;;;1.0;;
62457;SDS011;48509;52.122;5.250;2023-04-03T12:49:35;2.6;;;0.9;;
62457;SDS011;48509;52.122;5.250;2023-04-03T12:51:14;3.3;;;1.11;;
62457;SDS011;48509;52.122;5.250;2023-04-03T12:54:36;1.9;;;1.0;;
62457;SDS011;48509;52.122;5.250;2023-04-03T12:56:18;4.0;;;1.11;;
62457;SDS011;48509;52.122;5.250;2023-04-03T12:57:57;3.0;;;1.0;;
62457;SDS011;48509;52.122;5.250;2023-04-03T12:59:49;2.9;;;1.2;;
62457;SDS011;48509;52.122;5.250;2023-04-03T13:03:02;2.4;;;1.0;;
62457;SDS011;48509;52.122;5.250;2023-04-03T13:04:40;3.0;;;1.3;;
62457;SDS011;48509;52.122;5.250;2023-04-03T13:06:17;3.2;;;1.11;;
62457;SDS011;48509;52.122;5.250;2023-04-03T13:07:58;3.8;;;1.0;;
62457;SDS011;48509;52.122;5.250;2023-04-03T13:11:13;2.4;;;1.0;;
62457;SDS011;48509;52.122;5.250;2023-04-03T13:12:50;2.7;;;1.11;;
62457;SDS011;48509;52.122;5.250;2023-04-03T13:14:29;2.31;;;1.2;;
62457;SDS011;48509;52.122;5.250;2023-04-03T13:17:45;4.5;;;1.5;;
62457;SDS011;48509;52.122;5.250;2023-04-03T13:19:23;3.0;;;1.11;;
62457;SDS011;48509;52.122;5.250;2023-04-03T13:21:02;3.4;;;1.11;;
62457;SDS011;48509;52.122;5.250;2023-04-03T13:22:43;3.8;;;1.3;;
62457;SDS011;48509;52.122;5.250;2023-04-03T13:26:02;3.7;;;1.5;;
62457;SDS011;48509;52.122;5.250;2023-04-03T13:27:41;3.2;;;1.3;;
62457;SDS011;48509;52.122;5.250;2023-04-03T13:29:21;3.1;;;1.2;;
62457;SDS011;48509;52.122;5.250;2023-04-03T13:31:03;3.1;;;1.3;;
62457;SDS011;48509;52.122;5.250;2023-04-03T13:34:20;3.0;;;1.3;;
62457;SDS011;48509;52.122;5.250;2023-04-03T13:36:00;3.6;;;1.4;;
62457;SDS011;48509;52.122;5.250;2023-04-03T13:39:31;2.6;;;1.11;;
62457;SDS011;48509;52.122;5.250;2023-04-03T13:43:02;3.8;;;1.2;;
62457;SDS011;48509;52.122;5.250;2023-04-03T13:44:49;3.8;;;1.5;;
62457;SDS011;48509;52.122;5.250;2023-04-03T13:46:59;3.7;;;1.4;;
62457;SDS011;48509;52.122;5.250;2023-04-03T13:48:50;2.5;;;1.11;;
62457;SDS011;48509;52.122;5.250;2023-04-03T13:50:29;4.2;;;1.5;;
62457;SDS011;48509;52.122;5.250;2023-04-03T13:52:20;2.31;;;1.2;;
62457;SDS011;48509;52.122;5.250;2023-04-03T13:54:10;3.9;;;1.5;;
62457;SDS011;48509;52.122;5.250;2023-04-03T13:57:48;3.2;;;1.3;;
62457;SDS011;48509;52.122;5.250;2023-04-03T13:59:28;4.0;;;1.4;;
62457;SDS011;48509;52.122;5.250;2023-04-03T14:01:09;2.8;;;1.4;;
62457;SDS011;48509;52.122;5.250;2023-04-03T14:02:54;4.1;;;1.3;;
62457;SDS011;48509;52.122;5.250;2023-04-03T14:04:32;4.7;;;1.3;;